sensor_id;sensor_type;location;lat;lon;timestamp;temperature;humidity
20568;DHT22;10442;49.932;11.592;2023-03-05T00:01:23;6.00;69.70
20568;DHT22;10442;49.932;11.592;2023-03-05T00:03:53;6.00;69.60
20568;DHT22;10442;49.932;11.592;2023-03-05T00:06:23;6.00;69.60
20568;DHT22;10442;49.932;11.592;2023-03-05T00:08:51;6.00;69.60
20568;DHT22;10442;49.932;11.592;2023-03-05T00:11:20;6.00;69.50
20568;DHT22;10442;49.932;11.592;2023-03-05T00:13:50;6.00;69.50
20568;DHT22;10442;49.932;11.592;2023-03-05T00:16:18;6.00;69.70
20568;DHT22;10442;49.932;11.592;2023-03-05T00:18:47;6.00;69.70
20568;DHT22;10442;49.932;11.592;2023-03-05T00:21:26;6.00;69.80
20568;DHT22;10442;49.932;11.592;2023-03-05T00:23:54;6.00;69.90
20568;DHT22;10442;49.932;11.592;2023-03-05T00:26:24;6.00;69.90
20568;DHT22;10442;49.932;11.592;2023-03-05T00:28:51;6.00;69.90
20568;DHT22;10442;49.932;11.592;2023-03-05T00:31:25;6.10;70.00
20568;DHT22;10442;49.932;11.592;2023-03-05T00:33:54;6.10;70.00
20568;DHT22;10442;49.932;11.592;2023-03-05T00:36:22;6.10;70.00
20568;DHT22;10442;49.932;11.592;2023-03-05T00:38:51;6.10;70.00
20568;DHT22;10442;49.932;11.592;2023-03-05T00:41:18;6.10;69.90
20568;DHT22;10442;49.932;11.592;2023-03-05T00:43:47;6.10;69.90
20568;DHT22;10442;49.932;11.592;2023-03-05T00:46:14;6.10;70.00
20568;DHT22;10442;49.932;11.592;2023-03-05T00:48:42;6.10;70.00
20568;DHT22;10442;49.932;11.592;2023-03-05T00:51:09;6.10;70.00
20568;DHT22;10442;49.932;11.592;2023-03-05T00:53:37;6.10;69.90
20568;DHT22;10442;49.932;11.592;2023-03-05T00:56:05;6.10;70.00
20568;DHT22;10442;49.932;11.592;2023-03-05T00:58:33;6.10;70.00
20568;DHT22;10442;49.932;11.592;2023-03-05T01:01:01;6.10;70.00
20568;DHT22;10442;49.932;11.592;2023-03-05T01:03:30;6.10;70.00
20568;DHT22;10442;49.932;11.592;2023-03-05T01:05:58;6.10;70.10
20568;DHT22;10442;49.932;11.592;2023-03-05T01:08:26;6.10;70.20
20568;DHT22;10442;49.932;11.592;2023-03-05T01:10:54;6.10;70.30
20568;DHT22;10442;49.932;11.592;2023-03-05T01:13:21;6.10;70.30
20568;DHT22;10442;49.932;11.592;2023-03-05T01:15:49;6.10;70.20
20568;DHT22;10442;49.932;11.592;2023-03-05T01:18:18;6.10;70.10
20568;DHT22;10442;49.932;11.592;2023-03-05T01:20:46;6.10;70.20
20568;DHT22;10442;49.932;11.592;2023-03-05T01:23:14;6.10;70.20
20568;DHT22;10442;49.932;11.592;2023-03-05T01:25:42;6.10;70.20
20568;DHT22;10442;49.932;11.592;2023-03-05T01:28:10;6.10;70.20
20568;DHT22;10442;49.932;11.592;2023-03-05T01:30:37;6.10;70.20
20568;DHT22;10442;49.932;11.592;2023-03-05T01:33:04;6.10;70.20
20568;DHT22;10442;49.932;11.592;2023-03-05T01:35:31;6.00;70.20
20568;DHT22;10442;49.932;11.592;2023-03-05T01:37:59;6.00;70.10
20568;DHT22;10442;49.932;11.592;2023-03-05T01:40:29;6.00;70.00
20568;DHT22;10442;49.932;11.592;2023-03-05T01:43:19;6.00;70.10
20568;DHT22;10442;49.932;11.592;2023-03-05T01:49:01;6.00;70.10
20568;DHT22;10442;49.932;11.592;2023-03-05T01:51:34;6.00;70.00
20568;DHT22;10442;49.932;11.592;2023-03-05T01:54:05;6.00;70.10
20568;DHT22;10442;49.932;11.592;2023-03-05T01:56:33;6.00;70.00
20568;DHT22;10442;49.932;11.592;2023-03-05T01:59:01;6.00;70.00
20568;DHT22;10442;49.932;11.592;2023-03-05T02:01:32;6.00;70.00
20568;DHT22;10442;49.932;11.592;2023-03-05T02:04:01;6.00;70.00
20568;DHT22;10442;49.932;11.592;2023-03-05T02:06:28;6.00;70.00
20568;DHT22;10442;49.932;11.592;2023-03-05T02:08:55;6.00;70.00
20568;DHT22;10442;49.932;11.592;2023-03-05T02:11:23;6.00;69.90
20568;DHT22;10442;49.932;11.592;2023-03-05T02:13:51;6.00;69.80
20568;DHT22;10442;49.932;11.592;2023-03-05T02:16:18;6.00;69.60
20568;DHT22;10442;49.932;11.592;2023-03-05T02:18:45;5.90;69.40
20568;DHT22;10442;49.932;11.592;2023-03-05T02:21:13;5.90;69.40
20568;DHT22;10442;49.932;11.592;2023-03-05T02:23:40;5.90;69.40
20568;DHT22;10442;49.932;11.592;2023-03-05T02:26:09;5.90;69.30
20568;DHT22;10442;49.932;11.592;2023-03-05T02:28:57;5.90;69.30
20568;DHT22;10442;49.932;11.592;2023-03-05T02:31:26;5.90;69.10
20568;DHT22;10442;49.932;11.592;2023-03-05T02:33:53;5.90;68.70
20568;DHT22;10442;49.932;11.592;2023-03-05T02:36:23;5.90;68.40
20568;DHT22;10442;49.932;11.592;2023-03-05T02:38:52;5.90;68.10
20568;DHT22;10442;49.932;11.592;2023-03-05T02:41:20;5.80;67.90
20568;DHT22;10442;49.932;11.592;2023-03-05T02:43:48;5.80;67.90
20568;DHT22;10442;49.932;11.592;2023-03-05T02:46:15;5.80;67.80
20568;DHT22;10442;49.932;11.592;2023-03-05T02:48:43;5.70;67.70
20568;DHT22;10442;49.932;11.592;2023-03-05T02:51:13;5.70;67.60
20568;DHT22;10442;49.932;11.592;2023-03-05T02:53:42;5.70;67.40
20568;DHT22;10442;49.932;11.592;2023-03-05T02:56:10;5.70;68.10
20568;DHT22;10442;49.932;11.592;2023-03-05T02:58:37;5.60;67.30
20568;DHT22;10442;49.932;11.592;2023-03-05T03:01:04;5.60;67.20
20568;DHT22;10442;49.932;11.592;2023-03-05T03:03:33;5.60;67.00
20568;DHT22;10442;49.932;11.592;2023-03-05T03:06:00;5.60;67.00
20568;DHT22;10442;49.932;11.592;2023-03-05T03:08:28;5.60;67.00
20568;DHT22;10442;49.932;11.592;2023-03-05T03:10:55;5.60;66.80
20568;DHT22;10442;49.932;11.592;2023-03-05T03:13:23;5.50;66.80
20568;DHT22;10442;49.932;11.592;2023-03-05T03:16:01;5.50;66.70
20568;DHT22;10442;49.932;11.592;2023-03-05T03:18:28;5.50;66.50
20568;DHT22;10442;49.932;11.592;2023-03-05T03:20:55;5.50;66.50
20568;DHT22;10442;49.932;11.592;2023-03-05T03:23:23;5.50;66.30
20568;DHT22;10442;49.932;11.592;2023-03-05T03:25:50;5.50;66.20
20568;DHT22;10442;49.932;11.592;2023-03-05T03:28:18;5.50;66.10
20568;DHT22;10442;49.932;11.592;2023-03-05T03:30:45;5.50;66.00
20568;DHT22;10442;49.932;11.592;2023-03-05T03:33:13;5.50;65.80
20568;DHT22;10442;49.932;11.592;2023-03-05T03:35:40;5.50;65.80
20568;DHT22;10442;49.932;11.592;2023-03-05T03:38:07;5.50;65.70
20568;DHT22;10442;49.932;11.592;2023-03-05T03:40:35;5.50;65.70
20568;DHT22;10442;49.932;11.592;2023-03-05T03:43:03;5.50;65.60
20568;DHT22;10442;49.932;11.592;2023-03-05T03:45:30;5.50;65.50
20568;DHT22;10442;49.932;11.592;2023-03-05T03:47:57;5.50;65.30
20568;DHT22;10442;49.932;11.592;2023-03-05T03:50:25;5.50;65.20
20568;DHT22;10442;49.932;11.592;2023-03-05T03:52:52;5.50;65.20
20568;DHT22;10442;49.932;11.592;2023-03-05T03:55:19;5.50;65.20
20568;DHT22;10442;49.932;11.592;2023-03-05T03:57:46;5.50;65.20
20568;DHT22;10442;49.932;11.592;2023-03-05T04:00:14;5.50;65.10
20568;DHT22;10442;49.932;11.592;2023-03-05T04:02:42;5.50;65.10
20568;DHT22;10442;49.932;11.592;2023-03-05T04:05:09;5.50;64.90
20568;DHT22;10442;49.932;11.592;2023-03-05T04:07:37;5.50;64.90
20568;DHT22;10442;49.932;11.592;2023-03-05T04:10:05;5.50;64.90
20568;DHT22;10442;49.932;11.592;2023-03-05T04:12:32;5.50;64.90
20568;DHT22;10442;49.932;11.592;2023-03-05T04:14:59;5.60;65.00
20568;DHT22;10442;49.932;11.592;2023-03-05T04:17:27;5.50;64.90
20568;DHT22;10442;49.932;11.592;2023-03-05T04:19:54;5.50;64.70
20568;DHT22;10442;49.932;11.592;2023-03-05T04:22:21;5.60;64.70
20568;DHT22;10442;49.932;11.592;2023-03-05T04:24:48;5.50;64.70
20568;DHT22;10442;49.932;11.592;2023-03-05T04:27:16;5.50;64.90
20568;DHT22;10442;49.932;11.592;2023-03-05T04:29:43;5.50;64.90
20568;DHT22;10442;49.932;11.592;2023-03-05T04:32:10;5.60;64.90
20568;DHT22;10442;49.932;11.592;2023-03-05T04:34:38;5.50;64.90
20568;DHT22;10442;49.932;11.592;2023-03-05T04:37:05;5.50;64.90
20568;DHT22;10442;49.932;11.592;2023-03-05T04:39:32;5.50;64.60
20568;DHT22;10442;49.932;11.592;2023-03-05T04:41:59;5.50;64.70
20568;DHT22;10442;49.932;11.592;2023-03-05T04:44:27;5.50;64.90
20568;DHT22;10442;49.932;11.592;2023-03-05T04:46:54;5.50;64.90
20568;DHT22;10442;49.932;11.592;2023-03-05T04:49:21;5.50;64.90
20568;DHT22;10442;49.932;11.592;2023-03-05T04:51:49;5.50;64.90
20568;DHT22;10442;49.932;11.592;2023-03-05T04:54:16;5.50;64.90
20568;DHT22;10442;49.932;11.592;2023-03-05T04:56:43;5.50;64.70
20568;DHT22;10442;49.932;11.592;2023-03-05T04:59:11;5.50;64.70
20568;DHT22;10442;49.932;11.592;2023-03-05T05:01:38;5.50;64.80
20568;DHT22;10442;49.932;11.592;2023-03-05T05:04:05;5.50;64.80
20568;DHT22;10442;49.932;11.592;2023-03-05T05:06:33;5.50;64.70
20568;DHT22;10442;49.932;11.592;2023-03-05T05:09:00;5.50;64.80
20568;DHT22;10442;49.932;11.592;2023-03-05T05:11:27;5.50;64.80
20568;DHT22;10442;49.932;11.592;2023-03-05T05:13:55;5.50;64.90
20568;DHT22;10442;49.932;11.592;2023-03-05T05:16:23;5.50;64.70
20568;DHT22;10442;49.932;11.592;2023-03-05T05:18:50;5.50;64.70
20568;DHT22;10442;49.932;11.592;2023-03-05T05:21:17;5.50;64.60
20568;DHT22;10442;49.932;11.592;2023-03-05T05:23:46;5.50;64.50
20568;DHT22;10442;49.932;11.592;2023-03-05T05:26:13;5.50;64.60
20568;DHT22;10442;49.932;11.592;2023-03-05T05:28:42;5.40;64.40
20568;DHT22;10442;49.932;11.592;2023-03-05T05:31:12;5.50;64.00
20568;DHT22;10442;49.932;11.592;2023-03-05T05:33:41;5.50;64.00
20568;DHT22;10442;49.932;11.592;2023-03-05T05:36:11;5.50;63.90
20568;DHT22;10442;49.932;11.592;2023-03-05T05:38:40;5.50;63.80
20568;DHT22;10442;49.932;11.592;2023-03-05T05:41:10;5.40;63.80
20568;DHT22;10442;49.932;11.592;2023-03-05T05:43:38;5.40;63.70
20568;DHT22;10442;49.932;11.592;2023-03-05T05:46:09;5.40;63.40
20568;DHT22;10442;49.932;11.592;2023-03-05T05:48:37;5.40;63.20
20568;DHT22;10442;49.932;11.592;2023-03-05T05:51:06;5.40;63.10
20568;DHT22;10442;49.932;11.592;2023-03-05T05:53:34;5.40;63.10
20568;DHT22;10442;49.932;11.592;2023-03-05T05:56:04;5.40;63.10
20568;DHT22;10442;49.932;11.592;2023-03-05T05:58:31;5.40;63.10
20568;DHT22;10442;49.932;11.592;2023-03-05T06:00:59;5.40;63.00
20568;DHT22;10442;49.932;11.592;2023-03-05T06:03:26;5.40;62.90
20568;DHT22;10442;49.932;11.592;2023-03-05T06:05:54;5.40;63.00
20568;DHT22;10442;49.932;11.592;2023-03-05T06:08:21;5.40;62.90
20568;DHT22;10442;49.932;11.592;2023-03-05T06:10:54;5.40;62.80
20568;DHT22;10442;49.932;11.592;2023-03-05T06:13:22;5.40;62.80
20568;DHT22;10442;49.932;11.592;2023-03-05T06:15:57;5.30;62.40
20568;DHT22;10442;49.932;11.592;2023-03-05T06:18:25;5.40;62.20
20568;DHT22;10442;49.932;11.592;2023-03-05T06:21:04;5.40;62.50
20568;DHT22;10442;49.932;11.592;2023-03-05T06:23:32;5.40;62.40
20568;DHT22;10442;49.932;11.592;2023-03-05T06:26:01;5.40;62.50
20568;DHT22;10442;49.932;11.592;2023-03-05T06:28:29;5.40;62.50
20568;DHT22;10442;49.932;11.592;2023-03-05T06:31:07;5.40;62.40
20568;DHT22;10442;49.932;11.592;2023-03-05T06:33:36;5.40;62.40
20568;DHT22;10442;49.932;11.592;2023-03-05T06:36:05;5.40;62.50
20568;DHT22;10442;49.932;11.592;2023-03-05T06:38:34;5.40;62.40
20568;DHT22;10442;49.932;11.592;2023-03-05T06:41:03;5.40;62.50
20568;DHT22;10442;49.932;11.592;2023-03-05T06:43:36;5.40;62.40
20568;DHT22;10442;49.932;11.592;2023-03-05T06:46:07;5.40;63.20
20568;DHT22;10442;49.932;11.592;2023-03-05T06:48:35;5.40;62.50
20568;DHT22;10442;49.932;11.592;2023-03-05T06:51:02;5.50;62.60
20568;DHT22;10442;49.932;11.592;2023-03-05T06:53:30;5.50;62.70
20568;DHT22;10442;49.932;11.592;2023-03-05T06:56:00;5.50;62.70
20568;DHT22;10442;49.932;11.592;2023-03-05T06:58:27;5.50;62.70
20568;DHT22;10442;49.932;11.592;2023-03-05T07:00:54;5.50;62.60
20568;DHT22;10442;49.932;11.592;2023-03-05T07:03:21;5.50;62.60
20568;DHT22;10442;49.932;11.592;2023-03-05T07:05:49;5.50;62.80
20568;DHT22;10442;49.932;11.592;2023-03-05T07:08:16;5.60;63.20
20568;DHT22;10442;49.932;11.592;2023-03-05T07:10:43;5.60;62.70
20568;DHT22;10442;49.932;11.592;2023-03-05T07:13:11;5.60;62.50
20568;DHT22;10442;49.932;11.592;2023-03-05T07:15:39;5.60;62.60
20568;DHT22;10442;49.932;11.592;2023-03-05T07:18:06;5.60;62.70
20568;DHT22;10442;49.932;11.592;2023-03-05T07:20:35;5.70;62.90
20568;DHT22;10442;49.932;11.592;2023-03-05T07:23:02;5.70;62.70
20568;DHT22;10442;49.932;11.592;2023-03-05T07:25:30;5.70;62.70
20568;DHT22;10442;49.932;11.592;2023-03-05T07:27:58;5.80;62.50
20568;DHT22;10442;49.932;11.592;2023-03-05T07:30:25;5.80;62.60
20568;DHT22;10442;49.932;11.592;2023-03-05T07:32:52;5.90;62.60
20568;DHT22;10442;49.932;11.592;2023-03-05T07:35:20;5.90;62.50
20568;DHT22;10442;49.932;11.592;2023-03-05T07:37:47;5.90;62.40
20568;DHT22;10442;49.932;11.592;2023-03-05T07:40:14;6.00;62.50
20568;DHT22;10442;49.932;11.592;2023-03-05T07:42:42;6.00;62.30
20568;DHT22;10442;49.932;11.592;2023-03-05T07:45:18;6.00;62.20
20568;DHT22;10442;49.932;11.592;2023-03-05T07:47:46;6.00;62.40
20568;DHT22;10442;49.932;11.592;2023-03-05T07:50:13;6.10;62.10
20568;DHT22;10442;49.932;11.592;2023-03-05T07:52:40;6.10;61.90
20568;DHT22;10442;49.932;11.592;2023-03-05T07:55:08;6.10;61.80
20568;DHT22;10442;49.932;11.592;2023-03-05T07:57:36;6.10;61.70
20568;DHT22;10442;49.932;11.592;2023-03-05T08:00:06;6.10;61.90
20568;DHT22;10442;49.932;11.592;2023-03-05T08:02:37;6.10;61.90
20568;DHT22;10442;49.932;11.592;2023-03-05T08:05:05;6.10;62.10
20568;DHT22;10442;49.932;11.592;2023-03-05T08:07:32;6.10;62.20
20568;DHT22;10442;49.932;11.592;2023-03-05T08:10:00;6.10;62.10
20568;DHT22;10442;49.932;11.592;2023-03-05T08:12:28;6.10;61.90
20568;DHT22;10442;49.932;11.592;2023-03-05T08:14:55;6.10;62.00
20568;DHT22;10442;49.932;11.592;2023-03-05T08:17:23;6.20;62.00
20568;DHT22;10442;49.932;11.592;2023-03-05T08:19:50;6.20;62.20
20568;DHT22;10442;49.932;11.592;2023-03-05T08:22:18;6.20;62.40
20568;DHT22;10442;49.932;11.592;2023-03-05T08:24:46;6.20;62.40
20568;DHT22;10442;49.932;11.592;2023-03-05T08:27:14;6.20;62.30
20568;DHT22;10442;49.932;11.592;2023-03-05T08:29:41;6.20;62.20
20568;DHT22;10442;49.932;11.592;2023-03-05T08:32:08;6.20;62.20
20568;DHT22;10442;49.932;11.592;2023-03-05T08:34:35;6.20;62.20
20568;DHT22;10442;49.932;11.592;2023-03-05T08:37:03;6.20;62.10
20568;DHT22;10442;49.932;11.592;2023-03-05T08:39:32;6.20;61.80
20568;DHT22;10442;49.932;11.592;2023-03-05T08:41:59;6.20;61.70
20568;DHT22;10442;49.932;11.592;2023-03-05T08:44:27;6.20;61.60
20568;DHT22;10442;49.932;11.592;2023-03-05T08:46:54;6.20;61.50
20568;DHT22;10442;49.932;11.592;2023-03-05T08:49:22;6.30;61.20
20568;DHT22;10442;49.932;11.592;2023-03-05T08:51:49;6.30;61.10
20568;DHT22;10442;49.932;11.592;2023-03-05T08:54:16;6.30;61.00
20568;DHT22;10442;49.932;11.592;2023-03-05T08:56:43;6.30;60.80
20568;DHT22;10442;49.932;11.592;2023-03-05T08:59:12;6.30;60.80
20568;DHT22;10442;49.932;11.592;2023-03-05T09:01:40;6.30;60.40
20568;DHT22;10442;49.932;11.592;2023-03-05T09:04:08;6.40;60.40
20568;DHT22;10442;49.932;11.592;2023-03-05T09:06:36;6.30;60.00
20568;DHT22;10442;49.932;11.592;2023-03-05T09:09:07;6.40;60.00
20568;DHT22;10442;49.932;11.592;2023-03-05T09:11:35;6.40;59.60
20568;DHT22;10442;49.932;11.592;2023-03-05T09:14:04;6.50;59.40
20568;DHT22;10442;49.932;11.592;2023-03-05T09:16:32;6.50;59.30
20568;DHT22;10442;49.932;11.592;2023-03-05T09:18:59;6.50;59.00
20568;DHT22;10442;49.932;11.592;2023-03-05T09:21:27;6.50;58.70
20568;DHT22;10442;49.932;11.592;2023-03-05T09:23:54;6.50;58.70
20568;DHT22;10442;49.932;11.592;2023-03-05T09:26:26;6.60;58.50
20568;DHT22;10442;49.932;11.592;2023-03-05T09:28:53;6.60;58.60
20568;DHT22;10442;49.932;11.592;2023-03-05T09:31:21;6.70;58.70
20568;DHT22;10442;49.932;11.592;2023-03-05T09:33:48;6.80;58.80
20568;DHT22;10442;49.932;11.592;2023-03-05T09:36:24;6.90;58.30
20568;DHT22;10442;49.932;11.592;2023-03-05T09:38:52;7.00;58.10
20568;DHT22;10442;49.932;11.592;2023-03-05T09:50:43;7.20;57.00
20568;DHT22;10442;49.932;11.592;2023-03-05T09:53:48;7.30;57.20
20568;DHT22;10442;49.932;11.592;2023-03-05T09:56:23;7.30;57.20
20568;DHT22;10442;49.932;11.592;2023-03-05T09:58:54;7.40;57.50
20568;DHT22;10442;49.932;11.592;2023-03-05T10:01:38;7.40;57.20
20568;DHT22;10442;49.932;11.592;2023-03-05T10:06:43;7.40;56.70
20568;DHT22;10442;49.932;11.592;2023-03-05T10:09:15;7.40;56.70
20568;DHT22;10442;49.932;11.592;2023-03-05T10:11:56;7.40;56.70
20568;DHT22;10442;49.932;11.592;2023-03-05T10:14:28;7.40;56.30
20568;DHT22;10442;49.932;11.592;2023-03-05T10:19:46;7.40;55.50
20568;DHT22;10442;49.932;11.592;2023-03-05T10:28:07;7.40;55.90
20568;DHT22;10442;49.932;11.592;2023-03-05T10:36:45;7.40;55.80
20568;DHT22;10442;49.932;11.592;2023-03-05T10:39:41;7.40;55.40
20568;DHT22;10442;49.932;11.592;2023-03-05T10:42:24;7.40;55.40
20568;DHT22;10442;49.932;11.592;2023-03-05T10:45:11;7.40;55.60
20568;DHT22;10442;49.932;11.592;2023-03-05T10:47:58;7.50;55.60
20568;DHT22;10442;49.932;11.592;2023-03-05T10:50:35;7.50;55.10
20568;DHT22;10442;49.932;11.592;2023-03-05T10:56:02;7.70;55.20
20568;DHT22;10442;49.932;11.592;2023-03-05T10:58:30;7.80;55.40
20568;DHT22;10442;49.932;11.592;2023-03-05T11:01:05;7.90;55.10
20568;DHT22;10442;49.932;11.592;2023-03-05T11:03:55;8.00;54.50
20568;DHT22;10442;49.932;11.592;2023-03-05T11:06:39;8.10;53.90
20568;DHT22;10442;49.932;11.592;2023-03-05T11:11:42;8.40;54.00
20568;DHT22;10442;49.932;11.592;2023-03-05T11:14:25;8.50;53.60
20568;DHT22;10442;49.932;11.592;2023-03-05T11:16:57;8.60;53.80
20568;DHT22;10442;49.932;11.592;2023-03-05T11:19:29;8.70;53.60
20568;DHT22;10442;49.932;11.592;2023-03-05T11:24:43;9.00;52.70
20568;DHT22;10442;49.932;11.592;2023-03-05T11:27:31;9.10;52.60
20568;DHT22;10442;49.932;11.592;2023-03-05T11:30:02;9.20;51.60
20568;DHT22;10442;49.932;11.592;2023-03-05T11:32:30;9.20;51.10
20568;DHT22;10442;49.932;11.592;2023-03-05T11:34:58;9.20;51.40
20568;DHT22;10442;49.932;11.592;2023-03-05T11:37:27;9.30;51.40
20568;DHT22;10442;49.932;11.592;2023-03-05T11:40:17;9.20;50.90
20568;DHT22;10442;49.932;11.592;2023-03-05T11:42:53;9.20;50.70
20568;DHT22;10442;49.932;11.592;2023-03-05T11:45:21;9.20;50.90
20568;DHT22;10442;49.932;11.592;2023-03-05T11:47:52;9.20;50.80
20568;DHT22;10442;49.932;11.592;2023-03-05T11:50:24;9.10;50.80
20568;DHT22;10442;49.932;11.592;2023-03-05T11:53:04;9.00;50.70
20568;DHT22;10442;49.932;11.592;2023-03-05T12:00:46;8.80;51.00
20568;DHT22;10442;49.932;11.592;2023-03-05T12:03:17;8.70;51.20
20568;DHT22;10442;49.932;11.592;2023-03-05T12:05:49;8.60;51.70
20568;DHT22;10442;49.932;11.592;2023-03-05T12:08:28;8.50;51.20
20568;DHT22;10442;49.932;11.592;2023-03-05T12:11:00;8.50;51.80
20568;DHT22;10442;49.932;11.592;2023-03-05T12:13:45;8.50;52.00
20568;DHT22;10442;49.932;11.592;2023-03-05T12:16:36;8.40;52.00
20568;DHT22;10442;49.932;11.592;2023-03-05T12:21:52;8.40;52.20
20568;DHT22;10442;49.932;11.592;2023-03-05T12:29:48;8.40;52.40
20568;DHT22;10442;49.932;11.592;2023-03-05T12:34:58;8.20;52.40
20568;DHT22;10442;49.932;11.592;2023-03-05T12:53:15;8.10;52.70
20568;DHT22;10442;49.932;11.592;2023-03-05T13:00:55;8.10;52.90
20568;DHT22;10442;49.932;11.592;2023-03-05T13:03:34;8.10;53.20
20568;DHT22;10442;49.932;11.592;2023-03-05T13:06:02;8.10;53.30
20568;DHT22;10442;49.932;11.592;2023-03-05T13:08:36;8.10;53.40
20568;DHT22;10442;49.932;11.592;2023-03-05T13:11:07;8.20;53.40
20568;DHT22;10442;49.932;11.592;2023-03-05T13:13:37;8.20;53.20
20568;DHT22;10442;49.932;11.592;2023-03-05T13:16:18;8.20;53.00
20568;DHT22;10442;49.932;11.592;2023-03-05T13:18:47;8.20;52.80
20568;DHT22;10442;49.932;11.592;2023-03-05T13:21:17;8.10;53.10
20568;DHT22;10442;49.932;11.592;2023-03-05T13:23:50;8.10;53.30
20568;DHT22;10442;49.932;11.592;2023-03-05T13:26:38;8.10;53.40
20568;DHT22;10442;49.932;11.592;2023-03-05T13:29:14;8.20;53.70
20568;DHT22;10442;49.932;11.592;2023-03-05T13:32:23;8.20;53.90
20568;DHT22;10442;49.932;11.592;2023-03-05T13:34:49;8.30;53.90
20568;DHT22;10442;49.932;11.592;2023-03-05T13:37:19;8.40;54.00
20568;DHT22;10442;49.932;11.592;2023-03-05T13:39:59;8.50;53.80
20568;DHT22;10442;49.932;11.592;2023-03-05T13:42:30;8.60;54.10
20568;DHT22;10442;49.932;11.592;2023-03-05T13:45:15;8.60;53.30
20568;DHT22;10442;49.932;11.592;2023-03-05T13:47:58;8.70;53.00
20568;DHT22;10442;49.932;11.592;2023-03-05T13:50:34;8.80;53.10
20568;DHT22;10442;49.932;11.592;2023-03-05T13:53:18;8.90;53.10
20568;DHT22;10442;49.932;11.592;2023-03-05T13:55:48;8.90;52.80
20568;DHT22;10442;49.932;11.592;2023-03-05T13:58:48;9.00;52.80
20568;DHT22;10442;49.932;11.592;2023-03-05T14:01:31;9.00;52.30
20568;DHT22;10442;49.932;11.592;2023-03-05T14:07:00;9.00;52.30
20568;DHT22;10442;49.932;11.592;2023-03-05T14:12:04;8.90;51.80
20568;DHT22;10442;49.932;11.592;2023-03-05T14:14:37;8.80;51.80
20568;DHT22;10442;49.932;11.592;2023-03-05T14:17:38;8.80;52.00
20568;DHT22;10442;49.932;11.592;2023-03-05T14:22:46;8.60;51.80
20568;DHT22;10442;49.932;11.592;2023-03-05T14:25:37;8.50;51.80
20568;DHT22;10442;49.932;11.592;2023-03-05T14:30:46;8.40;52.40
20568;DHT22;10442;49.932;11.592;2023-03-05T14:33:29;8.40;52.20
20568;DHT22;10442;49.932;11.592;2023-03-05T14:35:59;8.30;51.90
20568;DHT22;10442;49.932;11.592;2023-03-05T14:38:30;8.20;52.10
20568;DHT22;10442;49.932;11.592;2023-03-05T14:41:17;8.20;52.30
20568;DHT22;10442;49.932;11.592;2023-03-05T14:43:44;8.20;52.30
20568;DHT22;10442;49.932;11.592;2023-03-05T14:46:11;8.10;52.30
20568;DHT22;10442;49.932;11.592;2023-03-05T14:48:39;8.10;52.50
20568;DHT22;10442;49.932;11.592;2023-03-05T14:51:09;8.00;52.40
20568;DHT22;10442;49.932;11.592;2023-03-05T14:53:42;8.00;52.50
20568;DHT22;10442;49.932;11.592;2023-03-05T14:56:31;8.00;52.70
20568;DHT22;10442;49.932;11.592;2023-03-05T14:58:58;7.90;52.70
20568;DHT22;10442;49.932;11.592;2023-03-05T15:01:26;7.90;52.60
20568;DHT22;10442;49.932;11.592;2023-03-05T15:03:53;7.80;52.60
20568;DHT22;10442;49.932;11.592;2023-03-05T15:06:30;7.80;52.90
20568;DHT22;10442;49.932;11.592;2023-03-05T15:08:59;7.80;52.70
20568;DHT22;10442;49.932;11.592;2023-03-05T15:11:27;7.70;52.90
20568;DHT22;10442;49.932;11.592;2023-03-05T15:13:55;7.70;53.10
20568;DHT22;10442;49.932;11.592;2023-03-05T15:16:22;7.70;53.10
20568;DHT22;10442;49.932;11.592;2023-03-05T15:18:49;7.70;53.30
20568;DHT22;10442;49.932;11.592;2023-03-05T15:21:17;7.70;53.30
20568;DHT22;10442;49.932;11.592;2023-03-05T15:23:44;7.70;53.30
20568;DHT22;10442;49.932;11.592;2023-03-05T15:26:13;7.70;53.00
20568;DHT22;10442;49.932;11.592;2023-03-05T15:28:41;7.60;52.90
20568;DHT22;10442;49.932;11.592;2023-03-05T15:31:10;7.60;53.10
20568;DHT22;10442;49.932;11.592;2023-03-05T15:33:37;7.50;53.10
20568;DHT22;10442;49.932;11.592;2023-03-05T15:36:06;7.50;53.30
20568;DHT22;10442;49.932;11.592;2023-03-05T15:38:33;7.50;53.30
20568;DHT22;10442;49.932;11.592;2023-03-05T15:41:01;7.50;53.40
20568;DHT22;10442;49.932;11.592;2023-03-05T15:43:28;7.50;53.50
20568;DHT22;10442;49.932;11.592;2023-03-05T15:45:56;7.40;53.50
20568;DHT22;10442;49.932;11.592;2023-03-05T15:48:24;7.50;53.50
20568;DHT22;10442;49.932;11.592;2023-03-05T15:50:51;7.40;53.60
20568;DHT22;10442;49.932;11.592;2023-03-05T15:53:18;7.40;53.70
20568;DHT22;10442;49.932;11.592;2023-03-05T15:55:47;7.40;53.60
20568;DHT22;10442;49.932;11.592;2023-03-05T15:58:15;7.40;53.60
20568;DHT22;10442;49.932;11.592;2023-03-05T16:00:43;7.40;53.70
20568;DHT22;10442;49.932;11.592;2023-03-05T16:03:13;7.40;53.90
20568;DHT22;10442;49.932;11.592;2023-03-05T16:05:41;7.40;53.90
20568;DHT22;10442;49.932;11.592;2023-03-05T16:08:08;7.40;54.10
20568;DHT22;10442;49.932;11.592;2023-03-05T16:10:36;7.30;54.10
20568;DHT22;10442;49.932;11.592;2023-03-05T16:13:10;7.30;54.20
20568;DHT22;10442;49.932;11.592;2023-03-05T16:15:39;7.30;54.20
20568;DHT22;10442;49.932;11.592;2023-03-05T16:18:10;7.30;54.40
20568;DHT22;10442;49.932;11.592;2023-03-05T16:20:38;7.30;54.40
20568;DHT22;10442;49.932;11.592;2023-03-05T16:23:06;7.30;54.40
20568;DHT22;10442;49.932;11.592;2023-03-05T16:25:33;7.30;54.50
20568;DHT22;10442;49.932;11.592;2023-03-05T16:28:01;7.20;54.50
20568;DHT22;10442;49.932;11.592;2023-03-05T16:30:29;7.20;54.70
20568;DHT22;10442;49.932;11.592;2023-03-05T16:32:56;7.20;54.60
20568;DHT22;10442;49.932;11.592;2023-03-05T16:35:24;7.20;54.60
20568;DHT22;10442;49.932;11.592;2023-03-05T16:37:51;7.20;54.60
20568;DHT22;10442;49.932;11.592;2023-03-05T16:40:19;7.20;55.30
20568;DHT22;10442;49.932;11.592;2023-03-05T16:42:46;7.20;54.70
20568;DHT22;10442;49.932;11.592;2023-03-05T16:45:14;7.20;54.80
20568;DHT22;10442;49.932;11.592;2023-03-05T16:47:41;7.20;54.80
20568;DHT22;10442;49.932;11.592;2023-03-05T16:50:09;7.20;54.80
20568;DHT22;10442;49.932;11.592;2023-03-05T16:52:37;7.10;54.70
20568;DHT22;10442;49.932;11.592;2023-03-05T16:55:05;7.10;54.70
20568;DHT22;10442;49.932;11.592;2023-03-05T16:57:32;7.10;54.90
20568;DHT22;10442;49.932;11.592;2023-03-05T17:00:00;7.00;55.00
20568;DHT22;10442;49.932;11.592;2023-03-05T17:02:30;7.00;55.10
20568;DHT22;10442;49.932;11.592;2023-03-05T17:04:57;7.00;55.10
20568;DHT22;10442;49.932;11.592;2023-03-05T17:07:25;7.00;55.20
20568;DHT22;10442;49.932;11.592;2023-03-05T17:09:53;6.90;55.20
20568;DHT22;10442;49.932;11.592;2023-03-05T17:12:21;6.90;55.20
20568;DHT22;10442;49.932;11.592;2023-03-05T17:14:48;6.90;55.30